Time;durP1;ratioP1;P1;durP2;ratioP2;P2;SDS_P1;SDS_P2;PMS_P1;PMS_P2;Temp;Humidity;BMP_temperature;BMP_pressure;BME280_temperature;BME280_humidity;BME280_pressure;Samples;Min_cycle;Max_cycle;Signal;HPM_P1;HPM_P2
2022/09/20 00:02:10;;;;;;;;;;;;;;;;;;5014034;28;799;-74
2022/09/20 00:04:37;;;;;;;;;;;;;;;;;;5014333;28;973;-74
2022/09/20 00:07:03;;;;;;;;;;;;;;;;;;5014015;28;1130;-74
2022/09/20 00:09:30;;;;;;;;;;;;;;;;;;5014097;28;1414;-74
2022/09/20 00:11:56;;;;;;;;;;;;;;;;;;5013512;28;1009;-73
2022/09/20 00:14:22;;;;;;;;;;;;;;;;;;5014222;28;853;-74
2022/09/20 00:16:48;;;;;;;;;;;;;;;;;;5013878;28;1123;-74
2022/09/20 00:19:17;;;;;;;;;;;;;;;;;;5013761;28;787;-74
2022/09/20 00:21:44;;;;;;;;;;;;;;;;;;5012164;28;1914;-74
2022/09/20 00:24:10;;;;;;;;;;;;;;;;;;5013747;28;1095;-74
2022/09/20 00:26:37;;;;;;;;;;;;;;;;;;5012470;28;1249;-73
2022/09/20 00:29:04;;;;;;;;;;;;;;;;;;5012564;28;1288;-74
2022/09/20 00:31:30;;;;;;;;;;;;;;;;;;5011968;28;1398;-74
2022/09/20 00:36:40;;;;;;;;;;;;;;;;;;5013548;28;962;-74
2022/09/20 00:39:09;;;;;;;;;;;;;;;;;;5012158;28;1420;-73
2022/09/20 00:41:35;;;;;;;;;;;;;;;;;;5011870;28;1918;-74
2022/09/20 00:44:02;;;;;;;;;;;;;;;;;;5013404;28;839;-74
2022/09/20 00:46:29;;;;;;;;;;;;;;;;;;5013560;28;1084;-74
2022/09/20 00:48:56;;;;;;;;;;;;;;;;;;5013064;28;742;-74
2022/09/20 00:51:23;;;;;;;;;;;;;;;;;;5013041;28;1451;-74
2022/09/20 00:53:50;;;;;;;;;;;;;;;;;;5013174;28;1013;-75
2022/09/20 00:56:18;;;;;;;;;;;;;;;;;;5013224;28;878;-74
2022/09/20 00:58:46;;;;;;;;;;;;;;;;;;5011566;28;1519;-74
2022/09/20 01:01:12;;;;;;;;;;;;;;;;;;5012708;28;1981;-74
2022/09/20 01:03:40;;;;;;;;;;;;;;;;;;5012782;28;1132;-75
2022/09/20 01:06:07;;;;;;;;;;;;;;;;;;5012788;28;1044;-73
2022/09/20 01:08:33;;;;;;;;;;;;;;;;;;5013155;28;1128;-74
2022/09/20 01:10:59;;;;;;;;;;;;;;;;;;5012751;28;1358;-75
2022/09/20 01:13:27;;;;;;;;;;;;;;;;;;5012771;28;759;-74
2022/09/20 01:15:53;;;;;;;;;;;;;;;;;;5012795;28;1013;-73
2022/09/20 01:18:20;;;;;;;;;;;;;;;;;;5012712;28;1116;-74
2022/09/20 01:20:46;;;;;;;;;;;;;;;;;;5012747;28;1910;-74
2022/09/20 01:23:16;;;;;;;;;;;;;;;;;;5012417;28;970;-74
2022/09/20 01:25:53;;;;;;;;;;;;;;;;;;5012755;28;1124;-75
2022/09/20 01:28:21;;;;;;;;;;;;;;;;;;5012872;28;890;-73
2022/09/20 01:30:48;;;;;;;;;;;;;;;;;;5011146;28;1334;-73
2022/09/20 01:33:16;;;;;;;;;;;;;;;;;;5012381;28;1131;-73
2022/09/20 01:35:43;;;;;;;;;;;;;;;;;;5012564;28;1055;-74
2022/09/20 01:38:14;;;;;;;;;;;;;;;;;;5012420;28;1079;-73
2022/09/20 01:40:43;;;;;;;;;;;;;;;;;;5012283;28;1974;-73
2022/09/20 01:43:12;;;;;;;;;;;;;;;;;;5011989;28;727;-74
2022/09/20 01:45:39;;;;;;;;;;;;;;;;;;5011229;28;1207;-74
2022/09/20 01:48:08;;;;;;;;;;;;;;;;;;5012181;28;969;-73
2022/09/20 01:50:35;;;;;;;;;;;;;;;;;;5012648;28;1322;-74
2022/09/20 01:53:08;;;;;;;;;;;;;;;;;;5012127;28;1040;-73
2022/09/20 01:55:45;;;;;;;;;;;;;;;;;;5012039;28;1123;-74
2022/09/20 01:58:26;;;;;;;;;;;;;;;;;;5012266;28;961;-74
2022/09/20 02:00:58;;;;;;;;;;;;;;;;;;5011727;28;1918;-73
2022/09/20 02:03:31;;;;;;;;;;;;;;;;;;5011825;28;763;-74
2022/09/20 02:06:08;;;;;;;;;;;;;;;;;;5011861;28;1127;-74
2022/09/20 02:08:36;;;;;;;;;;;;;;;;;;5012009;28;1076;-74
2022/09/20 02:11:04;;;;;;;;;;;;;;;;;;5010288;28;1315;-73
2022/09/20 02:13:30;;;;;;;;;;;;;;;;;;5011533;28;779;-73
2022/09/20 02:16:04;;;;;;;;;;;;;;;;;;5011785;28;945;-73
2022/09/20 02:18:34;;;;;;;;;;;;;;;;;;5011365;28;1131;-73
2022/09/20 02:21:01;;;;;;;;;;;;;;;;;;5036436;22;1918;-71
2022/09/20 02:23:32;;;;;;;;;;;;;;;;;;5003507;28;1147;-70
2022/09/20 02:26:10;;;;;;;;;;;;;;;;;;5011698;28;1083;-69
2022/09/20 02:28:42;;;;;;;;;;;;;;;;;;5011990;28;1068;-70
2022/09/20 02:31:10;;;;;;;;;;;;;;;;;;5011313;28;1413;-70
2022/09/20 02:33:44;;;;;;;;;;;;;;;;;;5011962;28;1127;-70
2022/09/20 02:36:16;;;;;;;;;;;;;;;;;;5011622;28;1087;-69
2022/09/20 02:38:45;;;;;;;;;;;;;;;;;;5011887;28;1100;-70
2022/09/20 02:41:19;;;;;;;;;;;;;;;;;;5011416;28;1918;-70
2022/09/20 02:43:47;;;;;;;;;;;;;;;;;;5011620;28;890;-70
2022/09/20 02:46:17;;;;;;;;;;;;;;;;;;5026705;28;1263;-70
2022/09/20 02:48:43;;;;;;;;;;;;;;;;;;5011499;28;874;-70
2022/09/20 02:51:12;;;;;;;;;;;;;;;;;;5011456;28;1333;-71
2022/09/20 02:53:40;;;;;;;;;;;;;;;;;;5011632;28;997;-69
2022/09/20 02:56:08;;;;;;;;;;;;;;;;;;5011466;28;913;-71
2022/09/20 02:58:37;;;;;;;;;;;;;;;;;;5011644;28;1004;-70
2022/09/20 03:01:05;;;;;;;;;;;;;;;;;;5023105;28;1938;-71
2022/09/20 03:03:36;;;;;;;;;;;;;;;;;;5030897;28;1088;-71
2022/09/20 03:06:04;;;;;;;;;;;;;;;;;;5046352;28;1267;-70
2022/09/20 03:08:33;;;;;;;;;;;;;;;;;;5031117;28;1080;-70
2022/09/20 03:11:02;;;;;;;;;;;;;;;;;;5029672;28;1322;-71
2022/09/20 03:13:31;;;;;;;;;;;;;;;;;;5029166;28;1152;-70
2022/09/20 03:16:01;;;;;;;;;;;;;;;;;;5031031;28;965;-70
2022/09/20 03:18:31;;;;;;;;;;;;;;;;;;5030800;28;1123;-71
2022/09/20 03:21:00;;;;;;;;;;;;;;;;;;5030679;28;1914;-71
2022/09/20 03:23:37;;;;;;;;;;;;;;;;;;5030899;28;1083;-71
2022/09/20 03:26:06;;;;;;;;;;;;;;;;;;5030942;28;1134;-71
2022/09/20 03:28:43;;;;;;;;;;;;;;;;;;5031044;28;1078;-70
2022/09/20 03:31:14;;;;;;;;;;;;;;;;;;5033588;28;1399;-68
2022/09/20 03:33:42;;;;;;;;;;;;;;;;;;5034432;28;870;-70
2022/09/20 03:36:15;;;;;;;;;;;;;;;;;;5034529;28;1111;-71
2022/09/20 03:38:59;;;;;;;;;;;;;;;;;;5033909;28;1096;-72
2022/09/20 03:41:28;;;;;;;;;;;;;;;;;;5011780;28;1950;-71
2022/09/20 03:43:59;;;;;;;;;;;;;;;;;;5023714;28;1408;-72
2022/09/20 03:46:26;;;;;;;;;;;;;;;;;;5007181;28;1159;-72
2022/09/20 03:49:07;;;;;;;;;;;;;;;;;;5013594;28;1409;-70
2022/09/20 03:51:37;;;;;;;;;;;;;;;;;;5003212;28;1499;-72
2022/09/20 03:54:18;;;;;;;;;;;;;;;;;;5015876;28;1470;-72
2022/09/20 03:56:59;;;;;;;;;;;;;;;;;;5014406;28;1060;-72
2022/09/20 03:59:30;;;;;;;;;;;;;;;;;;5014396;28;1005;-72
2022/09/20 04:02:14;;;;;;;;;;;;;;;;;;5011690;28;1922;-72
2022/09/20 04:04:42;;;;;;;;;;;;;;;;;;5014027;28;1397;-72
2022/09/20 04:07:15;;;;;;;;;;;;;;;;;;5012848;28;1116;-73
2022/09/20 04:10:01;;;;;;;;;;;;;;;;;;5013499;28;1415;-72
2022/09/20 04:12:29;;;;;;;;;;;;;;;;;;5018538;28;1306;-71
2022/09/20 04:14:58;;;;;;;;;;;;;;;;;;5004841;28;1487;-72
2022/09/20 04:17:27;;;;;;;;;;;;;;;;;;5014169;28;1174;-72
2022/09/20 04:19:56;;;;;;;;;;;;;;;;;;5011737;28;1403;-73
2022/09/20 04:22:25;;;;;;;;;;;;;;;;;;4993734;28;1910;-72
2022/09/20 04:24:52;;;;;;;;;;;;;;;;;;5008788;28;1101;-72
2022/09/20 04:27:20;;;;;;;;;;;;;;;;;;5013146;28;1231;-72
2022/09/20 04:29:47;;;;;;;;;;;;;;;;;;5013450;28;1374;-72
2022/09/20 04:32:15;;;;;;;;;;;;;;;;;;5012754;28;1397;-72
2022/09/20 04:37:32;;;;;;;;;;;;;;;;;;5011716;28;1267;-71
2022/09/20 04:40:01;;;;;;;;;;;;;;;;;;5013004;28;1397;-73
2022/09/20 04:42:32;;;;;;;;;;;;;;;;;;5012635;28;1910;-72
2022/09/20 04:45:04;;;;;;;;;;;;;;;;;;5012966;28;1389;-72
2022/09/20 04:47:36;;;;;;;;;;;;;;;;;;5013031;28;1282;-72
2022/09/20 04:50:10;;;;;;;;;;;;;;;;;;5009349;28;1245;-72
2022/09/20 04:52:50;;;;;;;;;;;;;;;;;;5011871;28;1413;-72
2022/09/20 04:55:25;;;;;;;;;;;;;;;;;;5013179;28;1060;-71
2022/09/20 04:57:58;;;;;;;;;;;;;;;;;;5013182;28;878;-72
2022/09/20 05:00:24;;;;;;;;;;;;;;;;;;5012898;28;1263;-72
2022/09/20 05:03:14;;;;;;;;;;;;;;;;;;5012648;28;1995;-72
2022/09/20 05:05:44;;;;;;;;;;;;;;;;;;5012385;28;1320;-72
2022/09/20 05:08:39;;;;;;;;;;;;;;;;;;5013905;28;1013;-72
2022/09/20 05:11:29;;;;;;;;;;;;;;;;;;5013372;28;1393;-69
2022/09/20 05:14:12;;;;;;;;;;;;;;;;;;5012868;28;1013;-72
2022/09/20 05:16:42;;;;;;;;;;;;;;;;;;5004818;28;1268;-71
2022/09/20 05:19:12;;;;;;;;;;;;;;;;;;5011564;28;1093;-71
2022/09/20 05:21:49;;;;;;;;;;;;;;;;;;5012046;28;1918;-71
2022/09/20 05:24:21;;;;;;;;;;;;;;;;;;5011325;28;1089;-71
2022/09/20 05:26:54;;;;;;;;;;;;;;;;;;5011414;28;1497;-72
2022/09/20 05:29:22;;;;;;;;;;;;;;;;;;5012573;28;976;-73
2022/09/20 05:31:49;;;;;;;;;;;;;;;;;;5011426;28;1453;-72
2022/09/20 05:34:17;;;;;;;;;;;;;;;;;;5012296;28;1123;-71
2022/09/20 05:36:45;;;;;;;;;;;;;;;;;;5012537;28;1009;-72
2022/09/20 05:39:16;;;;;;;;;;;;;;;;;;5011777;28;1275;-72
2022/09/20 05:41:44;;;;;;;;;;;;;;;;;;5009970;28;1982;-71
2022/09/20 05:44:15;;;;;;;;;;;;;;;;;;5012241;28;1001;-71
2022/09/20 05:46:45;;;;;;;;;;;;;;;;;;5012528;28;1072;-73
2022/09/20 05:49:12;;;;;;;;;;;;;;;;;;5012262;28;1064;-70
2022/09/20 05:51:46;;;;;;;;;;;;;;;;;;5009771;28;1491;-72
2022/09/20 05:54:18;;;;;;;;;;;;;;;;;;5009065;28;1368;-71
2022/09/20 05:56:45;;;;;;;;;;;;;;;;;;5011620;28;1416;-71
2022/09/20 05:59:24;;;;;;;;;;;;;;;;;;5010327;28;1319;-71
2022/09/20 06:01:57;;;;;;;;;;;;;;;;;;5009422;28;1918;-70
2022/09/20 06:04:23;;;;;;;;;;;;;;;;;;5011455;28;1140;-72
2022/09/20 06:06:52;;;;;;;;;;;;;;;;;;5010426;28;1259;-72
2022/09/20 06:09:28;;;;;;;;;;;;;;;;;;5010196;28;1243;-71
2022/09/20 06:12:00;;;;;;;;;;;;;;;;;;5009488;28;1415;-70
2022/09/20 06:14:32;;;;;;;;;;;;;;;;;;5008854;28;1244;-72
2022/09/20 06:16:59;;;;;;;;;;;;;;;;;;5011272;28;1327;-71
2022/09/20 06:19:27;;;;;;;;;;;;;;;;;;5009888;28;1311;-72
2022/09/20 06:21:54;;;;;;;;;;;;;;;;;;5010530;28;1973;-69
2022/09/20 06:24:24;;;;;;;;;;;;;;;;;;5011045;28;1286;-71
2022/09/20 06:26:51;;;;;;;;;;;;;;;;;;5009207;28;1311;-72
2022/09/20 06:29:17;;;;;;;;;;;;;;;;;;5011252;28;1333;-71
2022/09/20 06:31:45;;;;;;;;;;;;;;;;;;5010761;28;1354;-71
2022/09/20 06:34:11;;;;;;;;;;;;;;;;;;5010764;28;1239;-71
2022/09/20 06:42:09;;;;;;;;;;;;;;;;;;5004833;28;1930;-72
2022/09/20 06:44:40;;;;;;;;;;;;;;;;;;5006889;28;1264;-71
2022/09/20 06:47:08;;;;;;;;;;;;;;;;;;4998266;28;1800;-72
2022/09/20 06:49:35;;;;;;;;;;;;;;;;;;5011788;28;1179;-72
2022/09/20 06:52:01;;;;;;;;;;;;;;;;;;5010992;28;1404;-72
2022/09/20 06:54:28;;;;;;;;;;;;;;;;;;5020821;28;1254;-72
2022/09/20 06:56:54;;;;;;;;;;;;;;;;;;5010536;28;786;-71
2022/09/20 06:59:20;;;;;;;;;;;;;;;;;;5010193;28;1073;-71
2022/09/20 07:01:47;;;;;;;;;;;;;;;;;;5012429;28;1480;-72
2022/09/20 07:04:14;;;;;;;;;;;;;;;;;;5012276;28;1914;-71
2022/09/20 07:06:40;;;;;;;;;;;;;;;;;;5034152;28;863;-71
2022/09/20 07:09:07;;;;;;;;;;;;;;;;;;5034057;28;1152;-72
2022/09/20 07:11:33;;;;;;;;;;;;;;;;;;5033645;28;1318;-72
2022/09/20 07:14:00;;;;;;;;;;;;;;;;;;5032866;28;1325;-72
2022/09/20 07:16:26;;;;;;;;;;;;;;;;;;5034178;28;1079;-72
2022/09/20 07:18:52;;;;;;;;;;;;;;;;;;5034470;28;1124;-71
2022/09/20 07:21:20;;;;;;;;;;;;;;;;;;5016961;28;1397;-71
2022/09/20 07:23:47;;;;;;;;;;;;;;;;;;5013134;28;1926;-72
2022/09/20 07:26:16;;;;;;;;;;;;;;;;;;5013631;28;1056;-69
2022/09/20 07:28:43;;;;;;;;;;;;;;;;;;5013637;28;1151;-70
2022/09/20 07:31:09;;;;;;;;;;;;;;;;;;5013470;28;1380;-70
2022/09/20 07:33:35;;;;;;;;;;;;;;;;;;5013481;28;1083;-71
2022/09/20 07:36:02;;;;;;;;;;;;;;;;;;5013530;28;910;-70
2022/09/20 07:38:29;;;;;;;;;;;;;;;;;;5014143;28;902;-70
2022/09/20 07:40:56;;;;;;;;;;;;;;;;;;5014968;28;1408;-71
2022/09/20 07:43:22;;;;;;;;;;;;;;;;;;5048258;28;1985;-69
2022/09/20 07:45:52;;;;;;;;;;;;;;;;;;5033579;28;800;-71
2022/09/20 07:48:18;;;;;;;;;;;;;;;;;;5032798;28;936;-70
2022/09/20 07:50:49;;;;;;;;;;;;;;;;;;5048411;28;1214;-70
2022/09/20 07:53:16;;;;;;;;;;;;;;;;;;5032895;28;1079;-71
2022/09/20 07:55:43;;;;;;;;;;;;;;;;;;5032956;28;1080;-71
2022/09/20 07:58:09;;;;;;;;;;;;;;;;;;5032749;28;831;-71
2022/09/20 08:00:36;;;;;;;;;;;;;;;;;;5032883;28;1068;-70
2022/09/20 08:03:04;;;;;;;;;;;;;;;;;;5032660;28;1997;-70
2022/09/20 08:05:31;;;;;;;;;;;;;;;;;;5031818;28;1209;-71
2022/09/20 08:07:58;;;;;;;;;;;;;;;;;;5047981;28;1375;-71
2022/09/20 08:10:25;;;;;;;;;;;;;;;;;;5032541;28;1087;-71
2022/09/20 08:12:53;;;;;;;;;;;;;;;;;;5032757;28;1321;-69
2022/09/20 08:15:19;;;;;;;;;;;;;;;;;;5032056;28;958;-71
2022/09/20 08:17:46;;;;;;;;;;;;;;;;;;5032808;28;1126;-71
2022/09/20 08:20:13;;;;;;;;;;;;;;;;;;5032096;28;1068;-71
2022/09/20 08:22:41;;;;;;;;;;;;;;;;;;5047149;22;3697;-75
2022/09/20 08:25:08;;;;;;;;;;;;;;;;;;5032840;28;1114;-75
2022/09/20 08:27:34;;;;;;;;;;;;;;;;;;5032437;28;1064;-76
2022/09/20 08:30:01;;;;;;;;;;;;;;;;;;5032276;28;779;-75
2022/09/20 08:32:27;;;;;;;;;;;;;;;;;;5030784;28;1350;-76
2022/09/20 08:34:54;;;;;;;;;;;;;;;;;;5032542;28;1267;-75
2022/09/20 08:37:20;;;;;;;;;;;;;;;;;;5021063;28;1303;-76
2022/09/20 08:39:47;;;;;;;;;;;;;;;;;;4994679;28;1515;-75
2022/09/20 08:42:14;;;;;;;;;;;;;;;;;;5038475;28;1459;-76
2022/09/20 08:44:45;;;;;;;;;;;;;;;;;;5052381;28;1918;-75
2022/09/20 08:47:15;;;;;;;;;;;;;;;;;;5050998;28;1052;-75
2022/09/20 08:49:41;;;;;;;;;;;;;;;;;;5051706;28;886;-75
2022/09/20 08:52:08;;;;;;;;;;;;;;;;;;5048403;28;1424;-75
2022/09/20 08:54:35;;;;;;;;;;;;;;;;;;5032104;28;1097;-75
2022/09/20 08:57:03;;;;;;;;;;;;;;;;;;5024951;28;1480;-75
2022/09/20 08:59:30;;;;;;;;;;;;;;;;;;5031503;28;1140;-75
2022/09/20 09:01:57;;;;;;;;;;;;;;;;;;5031754;28;1350;-75
2022/09/20 09:04:30;;;;;;;;;;;;;;;;;;5037832;28;1969;-75
2022/09/20 09:06:56;;;;;;;;;;;;;;;;;;5013967;28;1765;-76
2022/09/20 09:09:23;;;;;;;;;;;;;;;;;;5031104;28;1119;-75
2022/09/20 09:11:50;;;;;;;;;;;;;;;;;;5031610;28;1365;-75
2022/09/20 09:17:03;;;;;;;;;;;;;;;;;;5030428;28;1728;-74
2022/09/20 09:19:32;;;;;;;;;;;;;;;;;;5031727;28;1146;-75
2022/09/20 09:21:59;;;;;;;;;;;;;;;;;;5031517;28;1250;-75
2022/09/20 09:24:25;;;;;;;;;;;;;;;;;;5031799;28;1973;-74
2022/09/20 09:26:52;;;;;;;;;;;;;;;;;;5030760;28;1368;-76
2022/09/20 09:29:19;;;;;;;;;;;;;;;;;;5031042;28;1120;-76
2022/09/20 09:31:46;;;;;;;;;;;;;;;;;;5031060;28;1294;-75
2022/09/20 09:34:23;;;;;;;;;;;;;;;;;;5031256;28;1127;-75
2022/09/20 09:36:50;;;;;;;;;;;;;;;;;;5031389;28;1068;-76
2022/09/20 09:39:20;;;;;;;;;;;;;;;;;;5029409;28;1332;-75
2022/09/20 09:41:47;;;;;;;;;;;;;;;;;;5040260;28;1452;-76
2022/09/20 09:44:18;;;;;;;;;;;;;;;;;;5051348;28;1977;-75
2022/09/20 09:46:45;;;;;;;;;;;;;;;;;;5051412;28;767;-75
2022/09/20 09:49:14;;;;;;;;;;;;;;;;;;5050784;28;926;-75
2022/09/20 09:51:42;;;;;;;;;;;;;;;;;;5049522;28;1355;-75
2022/09/20 09:54:10;;;;;;;;;;;;;;;;;;5033226;28;1220;-75
2022/09/20 09:56:39;;;;;;;;;;;;;;;;;;5050014;28;1110;-74
2022/09/20 09:59:19;;;;;;;;;;;;;;;;;;5050460;28;1008;-75
2022/09/20 10:01:47;;;;;;;;;;;;;;;;;;5027751;28;1460;-74
2022/09/20 10:04:15;;;;;;;;;;;;;;;;;;5029611;28;1910;-74
2022/09/20 10:06:43;;;;;;;;;;;;;;;;;;5023600;28;1231;-74
2022/09/20 10:09:15;;;;;;;;;;;;;;;;;;5030463;28;1072;-74
2022/09/20 10:11:45;;;;;;;;;;;;;;;;;;5030365;28;1298;-74
2022/09/20 10:14:15;;;;;;;;;;;;;;;;;;5030725;28;1060;-74
2022/09/20 10:16:46;;;;;;;;;;;;;;;;;;5030325;28;827;-74
2022/09/20 10:19:14;;;;;;;;;;;;;;;;;;5044925;28;1079;-74
2022/09/20 10:21:43;;;;;;;;;;;;;;;;;;5046621;28;1383;-74
2022/09/20 10:24:14;;;;;;;;;;;;;;;;;;5050458;28;1910;-74
2022/09/20 10:26:50;;;;;;;;;;;;;;;;;;5050809;28;1112;-74
2022/09/20 10:29:20;;;;;;;;;;;;;;;;;;5049926;28;1100;-75
2022/09/20 10:31:47;;;;;;;;;;;;;;;;;;5050040;28;1315;-74
2022/09/20 10:34:22;;;;;;;;;;;;;;;;;;5050501;28;902;-74
2022/09/20 10:36:49;;;;;;;;;;;;;;;;;;5050527;28;736;-75
2022/09/20 10:39:17;;;;;;;;;;;;;;;;;;5049719;28;949;-75
2022/09/20 10:44:33;;;;;;;;;;;;;;;;;;5050445;28;1979;-74
2022/09/20 10:47:01;;;;;;;;;;;;;;;;;;5049044;28;1669;-75
2022/09/20 10:49:27;;;;;;;;;;;;;;;;;;5029579;28;1524;-75
2022/09/20 10:52:07;;;;;;;;;;;;;;;;;;5029829;28;1432;-74
2022/09/20 10:54:37;;;;;;;;;;;;;;;;;;5030462;28;700;-74
2022/09/20 10:57:08;;;;;;;;;;;;;;;;;;5030441;28;1083;-74
2022/09/20 10:59:35;;;;;;;;;;;;;;;;;;5029941;28;869;-73
2022/09/20 11:02:17;;;;;;;;;;;;;;;;;;5029584;28;1329;-75
2022/09/20 11:04:50;;;;;;;;;;;;;;;;;;5010272;28;1981;-74
2022/09/20 11:07:17;;;;;;;;;;;;;;;;;;5012710;28;1048;-75
2022/09/20 11:09:44;;;;;;;;;;;;;;;;;;5004493;28;1571;-75
2022/09/20 11:12:11;;;;;;;;;;;;;;;;;;5044215;28;1400;-75
2022/09/20 11:14:38;;;;;;;;;;;;;;;;;;5049873;28;1012;-74
2022/09/20 11:17:05;;;;;;;;;;;;;;;;;;5050179;28;865;-74
2022/09/20 11:19:33;;;;;;;;;;;;;;;;;;5049458;28;1127;-74
2022/09/20 11:22:00;;;;;;;;;;;;;;;;;;5049467;28;1330;-75
2022/09/20 11:24:28;;;;;;;;;;;;;;;;;;5049816;28;1973;-74
2022/09/20 11:26:56;;;;;;;;;;;;;;;;;;5023948;28;1116;-75
2022/09/20 11:29:25;;;;;;;;;;;;;;;;;;5029091;28;1268;-74
2022/09/20 11:31:52;;;;;;;;;;;;;;;;;;5029294;28;1332;-74
2022/09/20 11:34:20;;;;;;;;;;;;;;;;;;5030195;28;961;-75
2022/09/20 11:36:51;;;;;;;;;;;;;;;;;;5029523;28;1346;-75
2022/09/20 11:39:18;;;;;;;;;;;;;;;;;;5029899;28;1559;-73
2022/09/20 11:41:44;;;;;;;;;;;;;;;;;;5038335;28;1475;-74
2022/09/20 11:44:12;;;;;;;;;;;;;;;;;;5048275;28;2010;-75
2022/09/20 11:46:40;;;;;;;;;;;;;;;;;;5049568;28;1060;-75
2022/09/20 11:49:08;;;;;;;;;;;;;;;;;;5049251;28;893;-76
2022/09/20 11:51:38;;;;;;;;;;;;;;;;;;5051004;28;1316;-76
2022/09/20 11:54:29;;;;;;;;;;;;;;;;;;5053698;28;1016;-76
2022/09/20 11:56:55;;;;;;;;;;;;;;;;;;5053218;28;842;-76
2022/09/20 11:59:26;;;;;;;;;;;;;;;;;;5035179;28;909;-77
2022/09/20 12:01:52;;;;;;;;;;;;;;;;;;5052674;28;1290;-76
2022/09/20 12:04:21;;;;;;;;;;;;;;;;;;5052542;28;1974;-76
2022/09/20 12:06:55;;;;;;;;;;;;;;;;;;5053386;28;1123;-76
2022/09/20 12:09:22;;;;;;;;;;;;;;;;;;5052301;28;945;-77
2022/09/20 12:11:51;;;;;;;;;;;;;;;;;;5051222;28;1337;-77
2022/09/20 12:14:17;;;;;;;;;;;;;;;;;;5051169;28;1148;-75
2022/09/20 12:16:45;;;;;;;;;;;;;;;;;;5052816;28;1678;-76
2022/09/20 12:19:12;;;;;;;;;;;;;;;;;;5052306;28;1076;-76
2022/09/20 12:21:57;;;;;;;;;;;;;;;;;;5051989;28;1348;-76
2022/09/20 12:24:24;;;;;;;;;;;;;;;;;;5052230;28;1910;-76
2022/09/20 12:26:51;;;;;;;;;;;;;;;;;;5051599;28;1615;-77
2022/09/20 12:29:53;;;;;;;;;;;;;;;;;;5053016;28;1096;-77
2022/09/20 12:32:44;;;;;;;;;;;;;;;;;;5051317;28;1354;-76
2022/09/20 12:35:25;;;;;;;;;;;;;;;;;;5041142;28;1294;-75
2022/09/20 12:37:51;;;;;;;;;;;;;;;;;;5031798;28;1092;-76
2022/09/20 12:40:18;;;;;;;;;;;;;;;;;;5030420;28;1294;-75
2022/09/20 12:42:44;;;;;;;;;;;;;;;;;;5049424;28;1490;-75
2022/09/20 12:45:15;;;;;;;;;;;;;;;;;;5052545;28;1922;-74
2022/09/20 12:47:50;;;;;;;;;;;;;;;;;;5051823;28;1055;-75
2022/09/20 12:53:02;;;;;;;;;;;;;;;;;;5019527;28;1452;-75
2022/09/20 12:55:30;;;;;;;;;;;;;;;;;;5032351;28;1052;-75
2022/09/20 12:57:57;;;;;;;;;;;;;;;;;;5031790;28;821;-74
2022/09/20 13:00:33;;;;;;;;;;;;;;;;;;5031627;28;1111;-75
2022/09/20 13:02:59;;;;;;;;;;;;;;;;;;5031252;28;1455;-74
2022/09/20 13:05:31;;;;;;;;;;;;;;;;;;5032410;28;1914;-75
2022/09/20 13:08:00;;;;;;;;;;;;;;;;;;5031944;28;1135;-75
2022/09/20 13:10:29;;;;;;;;;;;;;;;;;;5013639;28;1227;-75
2022/09/20 13:12:57;;;;;;;;;;;;;;;;;;5031446;28;1358;-74
2022/09/20 13:15:23;;;;;;;;;;;;;;;;;;5031773;28;1229;-74
2022/09/20 13:17:50;;;;;;;;;;;;;;;;;;5031854;28;1530;-75
2022/09/20 13:20:18;;;;;;;;;;;;;;;;;;5031349;28;787;-75
2022/09/20 13:22:45;;;;;;;;;;;;;;;;;;5031147;28;1432;-75
2022/09/20 13:25:13;;;;;;;;;;;;;;;;;;5031830;28;1910;-72
2022/09/20 13:27:40;;;;;;;;;;;;;;;;;;5031623;28;1076;-74
2022/09/20 13:30:09;;;;;;;;;;;;;;;;;;5031250;28;1127;-74
2022/09/20 13:32:40;;;;;;;;;;;;;;;;;;5022691;28;1404;-75
2022/09/20 13:35:07;;;;;;;;;;;;;;;;;;5027702;28;1264;-75
2022/09/20 13:37:33;;;;;;;;;;;;;;;;;;5014452;28;1224;-74
2022/09/20 13:40:01;;;;;;;;;;;;;;;;;;4993737;28;1057;-75
2022/09/20 13:42:28;;;;;;;;;;;;;;;;;;5040669;28;1477;-74
2022/09/20 13:44:54;;;;;;;;;;;;;;;;;;5051061;28;1977;-74
2022/09/20 13:47:22;;;;;;;;;;;;;;;;;;5049235;28;1298;-74
2022/09/20 13:49:49;;;;;;;;;;;;;;;;;;5030613;28;2238;-75
2022/09/20 13:52:21;;;;;;;;;;;;;;;;;;5022376;28;1534;-74
2022/09/20 13:54:47;;;;;;;;;;;;;;;;;;5030565;28;1135;-73
2022/09/20 13:57:15;;;;;;;;;;;;;;;;;;5030991;28;1072;-74
2022/09/20 13:59:43;;;;;;;;;;;;;;;;;;5030265;28;921;-73
2022/09/20 14:02:11;;;;;;;;;;;;;;;;;;5030534;28;1377;-75
2022/09/20 14:04:38;;;;;;;;;;;;;;;;;;5012588;28;1968;-76
2022/09/20 14:07:05;;;;;;;;;;;;;;;;;;5029794;28;1143;-75
2022/09/20 14:09:32;;;;;;;;;;;;;;;;;;5028347;28;1452;-76
2022/09/20 14:11:58;;;;;;;;;;;;;;;;;;5029742;28;1324;-75
2022/09/20 14:14:26;;;;;;;;;;;;;;;;;;5030236;28;970;-75
2022/09/20 14:16:53;;;;;;;;;;;;;;;;;;5029282;28;1282;-75
2022/09/20 14:19:20;;;;;;;;;;;;;;;;;;5012373;28;1287;-75
2022/09/20 14:21:46;;;;;;;;;;;;;;;;;;5028458;28;1352;-75
2022/09/20 14:24:29;;;;;;;;;;;;;;;;;;5030530;28;1977;-75
2022/09/20 14:26:59;;;;;;;;;;;;;;;;;;5027383;28;1335;-75
2022/09/20 14:29:35;;;;;;;;;;;;;;;;;;5019232;28;1264;-75
2022/09/20 14:32:01;;;;;;;;;;;;;;;;;;5012052;28;1464;-75
2022/09/20 14:34:29;;;;;;;;;;;;;;;;;;4993469;28;1125;-76
2022/09/20 14:37:03;;;;;;;;;;;;;;;;;;4992855;28;1423;-76
2022/09/20 14:39:30;;;;;;;;;;;;;;;;;;5012087;23;3658;-73
2022/09/20 14:41:56;;;;;;;;;;;;;;;;;;5031324;28;1127;-75
2022/09/20 14:44:23;;;;;;;;;;;;;;;;;;5029873;28;1918;-75
2022/09/20 14:46:51;;;;;;;;;;;;;;;;;;5030470;28;968;-74
2022/09/20 14:49:21;;;;;;;;;;;;;;;;;;5029634;28;1318;-75
2022/09/20 14:51:48;;;;;;;;;;;;;;;;;;5029865;28;870;-74
2022/09/20 14:54:23;;;;;;;;;;;;;;;;;;5032186;28;1523;-75
2022/09/20 14:56:51;;;;;;;;;;;;;;;;;;5030352;28;1076;-72
2022/09/20 14:59:20;;;;;;;;;;;;;;;;;;5029824;28;1330;-74
2022/09/20 15:01:55;;;;;;;;;;;;;;;;;;5029705;28;1112;-74
2022/09/20 15:04:22;;;;;;;;;;;;;;;;;;5029909;28;1031;-74
2022/09/20 15:06:48;;;;;;;;;;;;;;;;;;5036792;28;1914;-73
2022/09/20 15:09:14;;;;;;;;;;;;;;;;;;5036951;28;1291;-74
2022/09/20 15:11:40;;;;;;;;;;;;;;;;;;5033716;28;1087;-76
2022/09/20 15:14:07;;;;;;;;;;;;;;;;;;5029453;28;1206;-74
2022/09/20 15:16:33;;;;;;;;;;;;;;;;;;5029894;28;1255;-75
2022/09/20 15:19:00;;;;;;;;;;;;;;;;;;5029674;28;1334;-74
2022/09/20 15:21:27;;;;;;;;;;;;;;;;;;5028373;28;1348;-74
2022/09/20 15:23:53;;;;;;;;;;;;;;;;;;5030258;28;1072;-74
2022/09/20 15:26:19;;;;;;;;;;;;;;;;;;5032124;28;1974;-76
2022/09/20 15:28:46;;;;;;;;;;;;;;;;;;5034090;28;965;-76
2022/09/20 15:31:13;;;;;;;;;;;;;;;;;;5032966;28;1132;-75
2022/09/20 15:33:40;;;;;;;;;;;;;;;;;;5031897;28;1295;-76
2022/09/20 15:36:08;;;;;;;;;;;;;;;;;;5033439;28;1274;-75
2022/09/20 15:38:34;;;;;;;;;;;;;;;;;;5032030;28;1267;-75
2022/09/20 15:41:02;;;;;;;;;;;;;;;;;;5035258;28;1499;-75
2022/09/20 15:43:29;;;;;;;;;;;;;;;;;;5053337;28;808;-76
2022/09/20 15:45:59;;;;;;;;;;;;;;;;;;5053807;28;1971;-74
2022/09/20 15:48:25;;;;;;;;;;;;;;;;;;5045417;28;1298;-76
2022/09/20 15:51:01;;;;;;;;;;;;;;;;;;5032996;28;1405;-76
2022/09/20 15:53:30;;;;;;;;;;;;;;;;;;5032612;28;1317;-76
2022/09/20 15:55:57;;;;;;;;;;;;;;;;;;5033137;28;1263;-75
2022/09/20 15:58:24;;;;;;;;;;;;;;;;;;5032886;28;1056;-76
2022/09/20 16:00:50;;;;;;;;;;;;;;;;;;5033162;28;1314;-76
2022/09/20 16:03:17;;;;;;;;;;;;;;;;;;5028718;28;1760;-75
2022/09/20 16:05:43;;;;;;;;;;;;;;;;;;5032761;28;1976;-76
2022/09/20 16:08:09;;;;;;;;;;;;;;;;;;5032918;28;1223;-76
2022/09/20 16:10:37;;;;;;;;;;;;;;;;;;5033494;28;1378;-75
2022/09/20 16:13:04;;;;;;;;;;;;;;;;;;5031377;28;1195;-75
2022/09/20 16:15:30;;;;;;;;;;;;;;;;;;5032714;28;1120;-75
2022/09/20 16:20:45;;;;;;;;;;;;;;;;;;5012752;28;1545;-75
2022/09/20 16:23:13;;;;;;;;;;;;;;;;;;5033328;28;1275;-75
2022/09/20 16:25:40;;;;;;;;;;;;;;;;;;5034146;28;1977;-75
2022/09/20 16:28:06;;;;;;;;;;;;;;;;;;5033766;28;1112;-75
2022/09/20 16:30:33;;;;;;;;;;;;;;;;;;5034403;28;1340;-75
2022/09/20 16:33:05;;;;;;;;;;;;;;;;;;5033669;28;957;-74
2022/09/20 16:35:32;;;;;;;;;;;;;;;;;;5032504;28;1230;-75
2022/09/20 16:37:59;;;;;;;;;;;;;;;;;;5033134;28;933;-75
2022/09/20 16:40:25;;;;;;;;;;;;;;;;;;5033360;28;1368;-75
2022/09/20 16:42:57;;;;;;;;;;;;;;;;;;5033477;28;790;-75
2022/09/20 16:45:26;;;;;;;;;;;;;;;;;;5024981;28;1969;-75
2022/09/20 16:47:56;;;;;;;;;;;;;;;;;;5012133;28;993;-74
2022/09/20 16:50:23;;;;;;;;;;;;;;;;;;5011580;28;1310;-74
2022/09/20 16:52:49;;;;;;;;;;;;;;;;;;5011412;28;957;-75
2022/09/20 16:55:16;;;;;;;;;;;;;;;;;;5011815;28;1119;-75
2022/09/20 16:57:43;;;;;;;;;;;;;;;;;;5014954;28;1428;-75
2022/09/20 17:00:11;;;;;;;;;;;;;;;;;;5050007;28;1487;-75
2022/09/20 17:02:37;;;;;;;;;;;;;;;;;;5051172;28;921;-75
2022/09/20 17:05:04;;;;;;;;;;;;;;;;;;5051211;28;1918;-75
2022/09/20 17:07:30;;;;;;;;;;;;;;;;;;5028037;28;1438;-74
2022/09/20 17:10:00;;;;;;;;;;;;;;;;;;5027748;28;1391;-74
2022/09/20 17:12:30;;;;;;;;;;;;;;;;;;5028871;28;1930;-74
2022/09/20 17:14:56;;;;;;;;;;;;;;;;;;5027013;28;1543;-74
2022/09/20 17:17:24;;;;;;;;;;;;;;;;;;5029914;28;1451;-74
2022/09/20 17:19:50;;;;;;;;;;;;;;;;;;5028534;28;1442;-74
2022/09/20 17:22:16;;;;;;;;;;;;;;;;;;5025303;28;1371;-73
2022/09/20 17:24:42;;;;;;;;;;;;;;;;;;5031341;28;1375;-75
2022/09/20 17:27:09;;;;;;;;;;;;;;;;;;5029783;28;1934;-74
2022/09/20 17:29:35;;;;;;;;;;;;;;;;;;5030104;28;1440;-74
2022/09/20 17:32:01;;;;;;;;;;;;;;;;;;5027692;28;1401;-74
2022/09/20 17:34:30;;;;;;;;;;;;;;;;;;5027524;28;1192;-75
2022/09/20 17:36:56;;;;;;;;;;;;;;;;;;5028819;28;1208;-75
2022/09/20 17:39:22;;;;;;;;;;;;;;;;;;5028887;28;1413;-74
2022/09/20 17:41:49;;;;;;;;;;;;;;;;;;5029576;28;1199;-74